Time,TemperatureF,DewpointF,PressureIn,WindDirection,WindDirectionDegrees,WindSpeedMPH,WindSpeedGustMPH,Humidity,HourlyPrecipIn,Conditions,Clouds,dailyrainin,SolarRadiationWatts/m^2,SoftwareType,DateUTC
2013-07-22 00:01:00,82.0,77.0,30.11,WSW,256,0.0,0.0,85,0.00,,,0.00,0.000000,,2013-07-22 04:01:00,
2013-07-22 00:12:00,81.0,76.0,30.11,WSW,256,0.0,0.0,86,0.00,,,0.00,0.000000,,2013-07-22 04:12:00,
2013-07-22 00:22:00,81.0,76.0,30.11,WSW,256,0.0,0.0,86,0.00,,,0.00,0.000000,,2013-07-22 04:22:00,
2013-07-22 00:33:00,81.0,76.0,30.10,WSW,256,0.0,0.0,86,0.00,,,0.00,0.000000,,2013-07-22 04:33:00,
2013-07-22 00:43:00,81.0,76.0,30.10,WSW,256,0.0,0.0,86,0.00,,,0.00,0.000000,,2013-07-22 04:43:00,
2013-07-22 01:02:00,80.0,76.0,30.10,WSW,256,0.0,0.0,87,0.00,,,0.00,0.000000,,2013-07-22 05:02:00,
2013-07-22 01:11:00,80.0,76.0,30.10,WSW,256,0.0,0.0,88,0.00,,,0.00,0.000000,,2013-07-22 05:11:00,
2013-07-22 01:22:00,80.0,76.0,30.10,WSW,256,0.0,0.0,88,0.00,,,0.00,0.000000,,2013-07-22 05:22:00,
2013-07-22 01:32:00,80.0,76.0,30.09,WSW,256,0.0,0.0,88,0.00,,,0.00,0.000000,,2013-07-22 05:32:00,
2013-07-22 01:43:00,80.0,76.0,30.09,WSW,256,0.0,0.0,88,0.00,,,0.00,0.000000,,2013-07-22 05:43:00,
2013-07-22 01:52:00,80.0,76.0,30.09,WSW,256,0.0,0.0,88,0.00,,,0.00,0.000000,,2013-07-22 05:52:00,
2013-07-22 02:01:00,79.0,75.0,30.09,WSW,256,0.0,0.0,89,0.00,,,0.00,0.000000,,2013-07-22 06:01:00,
2013-07-22 02:11:00,79.0,75.0,30.09,WSW,256,0.0,0.0,89,0.00,,,0.00,0.000000,,2013-07-22 06:11:00,
2013-07-22 02:22:00,79.0,75.0,30.08,WSW,256,0.0,0.0,89,0.00,,,0.00,0.000000,,2013-07-22 06:22:00,
2013-07-22 02:33:00,79.0,75.0,30.08,WSW,256,0.0,0.0,89,0.00,,,0.00,0.000000,,2013-07-22 06:33:00,
2013-07-22 02:43:00,79.0,75.0,30.08,WSW,256,0.0,0.0,89,0.00,,,0.00,0.000000,,2013-07-22 06:43:00,
2013-07-22 02:52:00,79.0,76.0,30.08,WSW,256,0.0,0.0,90,0.00,,,0.00,0.000000,,2013-07-22 06:52:00,
2013-07-22 03:01:00,79.0,76.0,30.07,WSW,256,0.0,0.0,90,0.00,,,0.00,0.000000,,2013-07-22 07:01:00,
2013-07-22 03:12:00,79.0,76.0,30.07,WSW,256,0.0,0.0,90,0.00,,,0.00,0.000000,,2013-07-22 07:12:00,
2013-07-22 03:22:00,79.0,76.0,30.06,WSW,256,0.0,0.0,90,0.00,,,0.00,0.000000,,2013-07-22 07:22:00,
2013-07-22 03:33:00,79.0,76.0,30.07,WSW,256,0.0,0.0,90,0.00,,,0.00,0.000000,,2013-07-22 07:33:00,
2013-07-22 03:43:00,78.0,75.0,30.06,WSW,256,0.0,0.0,90,0.00,,,0.00,0.000000,,2013-07-22 07:43:00,
2013-07-22 03:52:00,78.0,75.0,30.06,WSW,256,0.0,0.0,90,0.00,,,0.00,0.000000,,2013-07-22 07:52:00,
2013-07-22 04:02:00,78.0,75.0,30.06,WSW,256,0.0,0.0,90,0.00,,,0.00,0.000000,,2013-07-22 08:02:00,
2013-07-22 04:11:00,78.0,75.0,30.05,WSW,256,0.0,0.0,90,0.00,,,0.00,0.000000,,2013-07-22 08:11:00,
2013-07-22 04:22:00,78.0,75.0,30.05,WSW,256,0.0,0.0,91,0.00,,,0.00,0.000000,,2013-07-22 08:22:00,
2013-07-22 04:32:00,78.0,75.0,30.05,WSW,256,0.0,0.0,91,0.00,,,0.00,0.000000,,2013-07-22 08:32:00,
2013-07-22 04:43:00,78.0,75.0,30.05,WSW,256,0.0,0.0,91,0.00,,,0.00,0.000000,,2013-07-22 08:43:00,
2013-07-22 04:52:00,78.0,75.0,30.05,WSW,256,0.0,0.0,91,0.00,,,0.00,0.000000,,2013-07-22 08:52:00,
2013-07-22 05:02:00,78.0,75.0,30.05,WSW,256,0.0,0.0,91,0.00,,,0.00,0.000000,,2013-07-22 09:02:00,
2013-07-22 05:11:00,78.0,75.0,30.05,WSW,256,0.0,0.0,91,0.00,,,0.00,0.000000,,2013-07-22 09:11:00,
2013-07-22 05:22:00,78.0,75.0,30.05,WSW,256,0.0,0.0,91,0.00,,,0.00,0.000000,,2013-07-22 09:22:00,
2013-07-22 05:33:00,78.0,75.0,30.06,WSW,256,0.0,0.0,91,0.00,,,0.00,0.000000,,2013-07-22 09:33:00,
2013-07-22 05:42:00,78.0,75.0,30.05,WSW,256,0.0,0.0,91,0.00,,,0.00,0.000000,,2013-07-22 09:42:00,
2013-07-22 05:52:00,78.0,75.0,30.06,WSW,256,0.0,0.0,91,0.00,,,0.00,0.000000,,2013-07-22 09:52:00,
2013-07-22 06:02:00,78.0,75.0,30.06,WSW,256,0.0,0.0,92,0.00,,,0.00,0.000000,,2013-07-22 10:02:00,
2013-07-22 06:11:00,78.0,75.0,30.06,WSW,256,0.0,0.0,92,0.00,,,0.00,0.000000,,2013-07-22 10:11:00,
2013-07-22 06:22:00,78.0,75.0,30.06,WSW,256,0.0,0.0,92,0.00,,,0.00,0.000000,,2013-07-22 10:22:00,
2013-07-22 06:32:00,78.0,75.0,30.06,WSW,256,0.0,0.0,92,0.00,,,0.00,0.000000,,2013-07-22 10:32:00,
2013-07-22 06:43:00,78.0,75.0,30.07,WSW,256,0.0,0.0,92,0.00,,,0.00,0.000000,,2013-07-22 10:43:00,
2013-07-22 06:52:00,78.0,75.0,30.07,WSW,256,0.0,0.0,92,0.00,,,0.00,0.000000,,2013-07-22 10:52:00,
2013-07-22 07:02:00,77.0,74.0,30.07,WSW,256,0.0,0.0,92,0.00,,,0.00,0.000000,,2013-07-22 11:02:00,
2013-07-22 07:11:00,77.0,74.0,30.07,WSW,256,0.0,0.0,92,0.00,,,0.00,5.000000,,2013-07-22 11:11:00,
2013-07-22 07:23:00,77.0,74.0,30.08,WSW,256,0.0,0.0,92,0.00,,,0.00,7.000000,,2013-07-22 11:23:00,
2013-07-22 07:32:00,77.0,74.0,30.08,WSW,256,0.0,0.0,92,0.00,,,0.00,18.000000,,2013-07-22 11:32:00,
2013-07-22 07:43:00,77.0,74.0,30.08,WSW,256,0.0,0.0,92,0.00,,,0.00,26.000000,,2013-07-22 11:43:00,
2013-07-22 07:52:00,77.0,74.0,30.09,WSW,256,0.0,0.0,92,0.00,,,0.00,33.000000,,2013-07-22 11:52:00,
2013-07-22 08:02:00,77.0,74.0,30.09,WSW,256,0.0,0.0,92,0.00,,,0.00,118.000000,,2013-07-22 12:02:00,
2013-07-22 08:11:00,78.0,75.0,30.09,WSW,256,0.0,0.0,92,0.00,,,0.00,144.000000,,2013-07-22 12:11:00,
2013-07-22 08:22:00,78.0,75.0,30.09,WSW,256,0.0,0.0,92,0.00,,,0.00,179.000000,,2013-07-22 12:22:00,
2013-07-22 08:33:00,79.0,76.0,30.09,WSW,256,0.0,1.0,92,0.00,,,0.00,214.000000,,2013-07-22 12:33:00,
2013-07-22 08:43:00,79.0,76.0,30.09,SSE,167,0.0,0.0,92,0.00,,,0.00,248.000000,,2013-07-22 12:43:00,
2013-07-22 08:53:00,80.0,77.0,30.10,South,175,0.0,1.0,92,0.00,,,0.00,288.000000,,2013-07-22 12:53:00,
2013-07-22 09:01:00,81.0,78.0,30.10,South,180,0.0,1.0,91,0.00,,,0.00,295.000000,,2013-07-22 13:01:00,
2013-07-22 09:11:00,81.0,78.0,30.10,SSW,198,0.0,1.0,91,0.00,,,0.00,341.000000,,2013-07-22 13:11:00,
2013-07-22 09:22:00,81.0,78.0,30.11,South,188,0.0,1.0,90,0.00,,,0.00,366.000000,,2013-07-22 13:22:00,
2013-07-22 09:43:00,84.0,79.0,30.11,South,188,0.0,0.0,85,0.00,,,0.00,464.000000,,2013-07-22 13:43:00,
2013-07-22 09:53:00,85.0,78.0,30.11,South,185,0.0,3.0,79,0.00,,,0.00,585.000000,,2013-07-22 13:53:00,
2013-07-22 10:32:00,87.0,77.0,30.11,WNW,297,0.0,3.0,73,0.00,,,0.00,178.000000,,2013-07-22 14:32:00,
2013-07-22 10:53:00,87.0,77.0,30.11,NW,311,0.0,6.0,73,0.00,,,0.00,807.000000,,2013-07-22 14:53:00,
2013-07-22 11:52:00,90.0,78.0,30.11,WNW,287,0.0,3.0,69,0.00,,,0.00,877.000000,,2013-07-22 15:52:00,
2013-07-22 12:43:00,91.0,78.0,30.11,SW,225,1.0,5.0,65,0.00,,,0.00,1039.000000,,2013-07-22 16:43:00,
2013-07-22 13:43:00,90.0,78.0,30.10,WSW,257,3.0,7.0,68,0.00,,,0.00,1106.000000,,2013-07-22 17:43:00,
2013-07-22 13:52:00,90.0,78.0,30.10,WSW,250,2.0,11.0,69,0.00,,,0.00,1104.000000,,2013-07-22 17:52:00,
2013-07-22 17:43:00,89.0,77.0,30.07,NW,311,4.0,6.0,69,0.00,,,0.00,439.000000,,2013-07-22 21:43:00,
2013-07-22 18:43:00,88.0,77.0,30.08,SW,215,0.0,10.0,70,0.00,,,0.00,302.000000,,2013-07-22 22:43:00,
2013-07-22 19:01:00,88.0,77.0,30.09,West,277,2.0,6.0,71,0.00,,,0.00,127.000000,,2013-07-22 23:01:00,
2013-07-22 19:32:00,86.0,77.0,30.08,WNW,292,0.0,5.0,74,0.00,,,0.00,102.000000,,2013-07-22 23:32:00,
2013-07-22 19:42:00,86.0,77.0,30.08,WNW,293,1.0,5.0,75,0.00,,,0.00,83.000000,,2013-07-22 23:42:00,
2013-07-22 19:52:00,86.0,77.0,30.07,SW,232,0.0,5.0,75,0.00,,,0.00,69.000000,,2013-07-22 23:52:00,
2013-07-22 20:01:00,86.0,77.0,30.07,WNW,290,0.0,5.0,75,0.00,,,0.00,53.000000,,2013-07-23 00:01:00,
2013-07-22 20:12:00,85.0,76.0,30.06,NW,306,0.0,5.0,75,0.00,,,0.00,37.000000,,2013-07-23 00:12:00,
2013-07-22 20:43:00,84.0,76.0,30.06,WNW,292,0.0,1.0,78,0.00,,,0.00,0.000000,,2013-07-23 00:43:00,
2013-07-22 20:52:00,84.0,76.0,30.06,WNW,303,0.0,2.0,78,0.00,,,0.00,0.000000,,2013-07-23 00:52:00,
2013-07-22 21:01:00,84.0,77.0,30.06,West,260,0.0,1.0,79,0.00,,,0.00,0.000000,,2013-07-23 01:01:00,
2013-07-22 21:43:00,83.0,77.0,30.07,NW,305,0.0,4.0,81,0.00,,,0.00,0.000000,,2013-07-23 01:43:00,
2013-07-22 23:43:00,82.0,76.0,30.08,WNW,303,0.0,4.0,82,0.00,,,0.00,0.000000,,2013-07-23 03:43:00,